sensor_id;sensor_type;location;lat;lon;timestamp;pressure;altitude;pressure_sealevel;temperature;humidity
10992;BME280;5549;47.028;15.514;2023-10-19T00:02:07;95717.47;;;10.09;69.10
10992;BME280;5549;47.028;15.514;2023-10-19T00:04:36;95709.59;;;10.09;70.03
10992;BME280;5549;47.028;15.514;2023-10-19T00:07:08;95711.69;;;10.06;70.00
10992;BME280;5549;47.028;15.514;2023-10-19T00:09:42;95718.88;;;10.04;69.46
10992;BME280;5549;47.028;15.514;2023-10-19T00:12:16;95711.03;;;10.04;69.14
10992;BME280;5549;47.028;15.514;2023-10-19T00:14:43;95708.69;;;10.01;68.78
10992;BME280;5549;47.028;15.514;2023-10-19T00:17:12;95710.34;;;10.02;68.94
10992;BME280;5549;47.028;15.514;2023-10-19T00:19:43;95713.25;;;9.98;68.81
10992;BME280;5549;47.028;15.514;2023-10-19T00:22:32;95704.41;;;10.00;68.81
10992;BME280;5549;47.028;15.514;2023-10-19T00:25:05;95697.38;;;10.00;69.36
10992;BME280;5549;47.028;15.514;2023-10-19T00:27:36;95686.88;;;10.00;68.58
10992;BME280;5549;47.028;15.514;2023-10-19T00:30:05;95699.84;;;10.02;68.78
10992;BME280;5549;47.028;15.514;2023-10-19T00:32:35;95682.47;;;10.01;68.74
10992;BME280;5549;47.028;15.514;2023-10-19T00:35:05;95676.53;;;9.98;69.08
10992;BME280;5549;47.028;15.514;2023-10-19T00:37:56;95663.88;;;9.94;69.41
10992;BME280;5549;47.028;15.514;2023-10-19T00:40:50;95664.69;;;9.94;68.75
10992;BME280;5549;47.028;15.514;2023-10-19T00:43:28;95649.63;;;9.96;68.35
10992;BME280;5549;47.028;15.514;2023-10-19T00:45:59;95648.28;;;9.92;69.38
10992;BME280;5549;47.028;15.514;2023-10-19T00:48:30;95646.03;;;9.97;68.66
10992;BME280;5549;47.028;15.514;2023-10-19T00:50:59;95638.47;;;9.94;68.84
10992;BME280;5549;47.028;15.514;2023-10-19T00:53:38;95637.50;;;9.95;68.39
10992;BME280;5549;47.028;15.514;2023-10-19T00:56:08;95638.16;;;9.97;68.91
10992;BME280;5549;47.028;15.514;2023-10-19T00:58:38;95625.69;;;9.82;70.34
10992;BME280;5549;47.028;15.514;2023-10-19T01:01:07;95636.44;;;9.88;69.32
10992;BME280;5549;47.028;15.514;2023-10-19T01:03:38;95625.94;;;9.88;69.42
10992;BME280;5549;47.028;15.514;2023-10-19T01:06:06;95620.47;;;9.82;69.59
10992;BME280;5549;47.028;15.514;2023-10-19T01:08:39;95616.72;;;9.84;69.57
10992;BME280;5549;47.028;15.514;2023-10-19T01:11:13;95608.84;;;9.84;69.18
10992;BME280;5549;47.028;15.514;2023-10-19T01:13:49;95618.06;;;9.88;68.82
10992;BME280;5549;47.028;15.514;2023-10-19T01:16:18;95615.44;;;9.88;68.54
10992;BME280;5549;47.028;15.514;2023-10-19T01:18:50;95611.91;;;9.80;69.18
10992;BME280;5549;47.028;15.514;2023-10-19T01:21:22;95611.63;;;9.83;69.15
10992;BME280;5549;47.028;15.514;2023-10-19T01:23:55;95607.78;;;9.77;69.25
10992;BME280;5549;47.028;15.514;2023-10-19T01:26:24;95609.44;;;9.78;69.02
10992;BME280;5549;47.028;15.514;2023-10-19T01:28:53;95607.03;;;9.67;69.55
10992;BME280;5549;47.028;15.514;2023-10-19T01:31:27;95599.00;;;9.69;69.11
10992;BME280;5549;47.028;15.514;2023-10-19T01:34:08;95588.13;;;9.63;69.25
10992;BME280;5549;47.028;15.514;2023-10-19T01:36:38;95585.81;;;9.60;68.81
10992;BME280;5549;47.028;15.514;2023-10-19T01:39:10;95583.25;;;9.51;69.13
10992;BME280;5549;47.028;15.514;2023-10-19T01:41:40;95572.63;;;9.52;69.09
10992;BME280;5549;47.028;15.514;2023-10-19T01:44:07;95574.78;;;9.57;68.59
10992;BME280;5549;47.028;15.514;2023-10-19T01:46:39;95576.50;;;9.48;69.31
10992;BME280;5549;47.028;15.514;2023-10-19T01:49:08;95571.78;;;9.52;68.83
10992;BME280;5549;47.028;15.514;2023-10-19T01:51:39;95554.53;;;9.31;69.72
10992;BME280;5549;47.028;15.514;2023-10-19T01:54:08;95557.81;;;9.33;69.75
10992;BME280;5549;47.028;15.514;2023-10-19T01:56:37;95552.13;;;9.11;70.34
10992;BME280;5549;47.028;15.514;2023-10-19T01:59:07;95552.47;;;8.98;70.94
10992;BME280;5549;47.028;15.514;2023-10-19T02:01:35;95547.53;;;9.22;70.26
10992;BME280;5549;47.028;15.514;2023-10-19T02:04:06;95553.16;;;9.27;69.62
10992;BME280;5549;47.028;15.514;2023-10-19T02:06:38;95543.66;;;9.26;69.50
10992;BME280;5549;47.028;15.514;2023-10-19T02:09:09;95536.75;;;8.98;71.10
10992;BME280;5549;47.028;15.514;2023-10-19T02:11:44;95547.72;;;9.11;70.19
10992;BME280;5549;47.028;15.514;2023-10-19T02:14:16;95536.75;;;8.98;71.17
10992;BME280;5549;47.028;15.514;2023-10-19T02:16:47;95528.47;;;9.03;70.69
10992;BME280;5549;47.028;15.514;2023-10-19T02:19:16;95525.69;;;9.04;70.49
10992;BME280;5549;47.028;15.514;2023-10-19T02:21:43;95528.44;;;9.12;70.34
10992;BME280;5549;47.028;15.514;2023-10-19T02:24:17;95522.78;;;9.07;70.07
10992;BME280;5549;47.028;15.514;2023-10-19T02:26:49;95521.53;;;9.11;70.54
10992;BME280;5549;47.028;15.514;2023-10-19T02:29:18;95522.22;;;9.13;69.92
10992;BME280;5549;47.028;15.514;2023-10-19T02:31:46;95517.56;;;9.07;70.30
10992;BME280;5549;47.028;15.514;2023-10-19T02:34:15;95513.38;;;9.14;70.10
10992;BME280;5549;47.028;15.514;2023-10-19T02:36:45;95508.53;;;9.19;69.92
10992;BME280;5549;47.028;15.514;2023-10-19T02:39:20;95501.34;;;9.21;69.62
10992;BME280;5549;47.028;15.514;2023-10-19T02:41:49;95507.56;;;9.20;69.80
10992;BME280;5549;47.028;15.514;2023-10-19T02:44:19;95493.09;;;9.16;69.74
10992;BME280;5549;47.028;15.514;2023-10-19T02:46:50;95491.59;;;9.14;69.69
10992;BME280;5549;47.028;15.514;2023-10-19T02:49:22;95490.94;;;9.12;69.81
10992;BME280;5549;47.028;15.514;2023-10-19T02:51:50;95493.09;;;9.16;69.34
10992;BME280;5549;47.028;15.514;2023-10-19T02:54:23;95486.91;;;9.17;69.08
10992;BME280;5549;47.028;15.514;2023-10-19T02:56:54;95480.31;;;9.13;69.02
10992;BME280;5549;47.028;15.514;2023-10-19T02:59:28;95483.22;;;9.10;69.48
10992;BME280;5549;47.028;15.514;2023-10-19T03:01:57;95479.91;;;9.08;69.47
10992;BME280;5549;47.028;15.514;2023-10-19T03:04:34;95482.16;;;9.03;70.10
10992;BME280;5549;47.028;15.514;2023-10-19T03:07:02;95468.91;;;8.77;70.88
10992;BME280;5549;47.028;15.514;2023-10-19T03:09:34;95482.78;;;8.87;70.60
10992;BME280;5549;47.028;15.514;2023-10-19T03:12:03;95481.84;;;8.79;70.97
10992;BME280;5549;47.028;15.514;2023-10-19T03:14:34;95481.56;;;8.82;70.81
10992;BME280;5549;47.028;15.514;2023-10-19T03:17:08;95488.50;;;8.63;72.01
10992;BME280;5549;47.028;15.514;2023-10-19T03:19:38;95482.03;;;8.58;72.46
10992;BME280;5549;47.028;15.514;2023-10-19T03:22:05;95481.91;;;8.59;71.98
10992;BME280;5549;47.028;15.514;2023-10-19T03:24:35;95469.63;;;8.70;71.49
10992;BME280;5549;47.028;15.514;2023-10-19T03:27:02;95459.75;;;8.54;72.25
10992;BME280;5549;47.028;15.514;2023-10-19T03:29:41;95465.81;;;8.54;72.43
10992;BME280;5549;47.028;15.514;2023-10-19T03:32:12;95443.22;;;8.53;72.20
10992;BME280;5549;47.028;15.514;2023-10-19T03:34:42;95447.59;;;8.62;71.79
10992;BME280;5549;47.028;15.514;2023-10-19T03:37:16;95450.22;;;8.62;71.72
10992;BME280;5549;47.028;15.514;2023-10-19T03:39:48;95447.03;;;8.68;71.34
10992;BME280;5549;47.028;15.514;2023-10-19T03:42:15;95441.19;;;8.47;72.70
10992;BME280;5549;47.028;15.514;2023-10-19T03:44:43;95439.06;;;8.60;71.77
10992;BME280;5549;47.028;15.514;2023-10-19T03:47:17;95430.56;;;8.49;72.14
10992;BME280;5549;47.028;15.514;2023-10-19T03:49:46;95436.44;;;8.60;71.81
10992;BME280;5549;47.028;15.514;2023-10-19T03:52:15;95456.69;;;8.58;71.91
10992;BME280;5549;47.028;15.514;2023-10-19T03:54:50;95446.22;;;8.58;71.88
10992;BME280;5549;47.028;15.514;2023-10-19T03:57:19;95435.75;;;8.58;72.00
10992;BME280;5549;47.028;15.514;2023-10-19T03:59:51;95442.94;;;8.56;72.06
10992;BME280;5549;47.028;15.514;2023-10-19T04:02:23;95435.47;;;8.61;71.61
10992;BME280;5549;47.028;15.514;2023-10-19T04:04:51;95436.16;;;8.63;71.58
10992;BME280;5549;47.028;15.514;2023-10-19T04:07:23;95424.47;;;8.67;71.48
10992;BME280;5549;47.028;15.514;2023-10-19T04:09:56;95420.34;;;8.55;72.15
10992;BME280;5549;47.028;15.514;2023-10-19T04:12:37;95404.06;;;8.61;71.91
10992;BME280;5549;47.028;15.514;2023-10-19T04:15:10;95410.59;;;8.48;72.75
10992;BME280;5549;47.028;15.514;2023-10-19T04:17:42;95408.63;;;8.59;71.81
10992;BME280;5549;47.028;15.514;2023-10-19T04:20:15;95404.66;;;8.55;71.94
10992;BME280;5549;47.028;15.514;2023-10-19T04:22:56;95397.97;;;8.43;72.18
10992;BME280;5549;47.028;15.514;2023-10-19T04:25:35;95401.25;;;8.45;72.52
10992;BME280;5549;47.028;15.514;2023-10-19T04:28:03;95384.59;;;8.46;72.50
10992;BME280;5549;47.028;15.514;2023-10-19T04:30:31;95387.06;;;8.48;72.45
10992;BME280;5549;47.028;15.514;2023-10-19T04:32:59;95381.34;;;8.25;73.87
10992;BME280;5549;47.028;15.514;2023-10-19T04:35:30;95376.50;;;8.30;73.47
10992;BME280;5549;47.028;15.514;2023-10-19T04:38:00;95378.16;;;8.31;73.55
10992;BME280;5549;47.028;15.514;2023-10-19T04:40:28;95378.44;;;8.28;73.90
10992;BME280;5549;47.028;15.514;2023-10-19T04:42:57;95379.97;;;8.21;74.21
10992;BME280;5549;47.028;15.514;2023-10-19T04:45:28;95374.19;;;8.27;73.92
10992;BME280;5549;47.028;15.514;2023-10-19T04:47:56;95373.63;;;8.23;74.28
10992;BME280;5549;47.028;15.514;2023-10-19T04:50:27;95369.81;;;8.18;74.34
10992;BME280;5549;47.028;15.514;2023-10-19T04:52:57;95369.66;;;8.19;74.45
10992;BME280;5549;47.028;15.514;2023-10-19T04:55:25;95369.22;;;8.24;73.97
10992;BME280;5549;47.028;15.514;2023-10-19T04:57:53;95361.97;;;8.18;74.29
10992;BME280;5549;47.028;15.514;2023-10-19T05:00:22;95367.44;;;8.34;73.46
10992;BME280;5549;47.028;15.514;2023-10-19T05:02:53;95360.00;;;8.29;73.91
10992;BME280;5549;47.028;15.514;2023-10-19T05:05:21;95352.72;;;8.23;74.27
10992;BME280;5549;47.028;15.514;2023-10-19T05:07:51;95344.00;;;8.32;73.36
10992;BME280;5549;47.028;15.514;2023-10-19T05:10:20;95349.81;;;8.36;73.67
10992;BME280;5549;47.028;15.514;2023-10-19T05:12:50;95339.16;;;8.47;72.93
10992;BME280;5549;47.028;15.514;2023-10-19T05:15:18;95344.09;;;8.50;72.89
10992;BME280;5549;47.028;15.514;2023-10-19T05:17:47;95347.00;;;8.47;73.32
10992;BME280;5549;47.028;15.514;2023-10-19T05:20:16;95335.75;;;8.37;73.68
10992;BME280;5549;47.028;15.514;2023-10-19T05:22:47;95342.50;;;8.40;73.48
10992;BME280;5549;47.028;15.514;2023-10-19T05:25:17;95346.06;;;8.39;73.33
10992;BME280;5549;47.028;15.514;2023-10-19T05:27:44;95345.50;;;8.45;73.38
10992;BME280;5549;47.028;15.514;2023-10-19T05:30:15;95339.72;;;8.41;73.50
10992;BME280;5549;47.028;15.514;2023-10-19T05:32:43;95337.03;;;8.23;74.47
10992;BME280;5549;47.028;15.514;2023-10-19T05:35:16;95341.09;;;8.45;73.54
10992;BME280;5549;47.028;15.514;2023-10-19T05:37:51;95329.94;;;8.43;73.38
10992;BME280;5549;47.028;15.514;2023-10-19T05:40:18;95338.47;;;8.45;73.38
10992;BME280;5549;47.028;15.514;2023-10-19T05:42:46;95339.38;;;8.54;73.50
10992;BME280;5549;47.028;15.514;2023-10-19T05:45:16;95331.09;;;8.58;73.12
10992;BME280;5549;47.028;15.514;2023-10-19T05:47:43;95337.69;;;8.62;73.37
10992;BME280;5549;47.028;15.514;2023-10-19T05:50:15;95336.91;;;8.52;73.62
10992;BME280;5549;47.028;15.514;2023-10-19T05:52:45;95337.38;;;8.65;73.69
10992;BME280;5549;47.028;15.514;2023-10-19T05:55:13;95329.97;;;8.61;73.76
10992;BME280;5549;47.028;15.514;2023-10-19T05:57:43;95339.16;;;8.75;73.15
10992;BME280;5549;47.028;15.514;2023-10-19T06:00:13;95340.41;;;8.71;73.53
10992;BME280;5549;47.028;15.514;2023-10-19T06:02:43;95326.38;;;8.62;74.15
10992;BME280;5549;47.028;15.514;2023-10-19T06:05:13;95340.34;;;8.80;73.29
10992;BME280;5549;47.028;15.514;2023-10-19T06:07:43;95334.38;;;9.23;78.87
10992;BME280;5549;47.028;15.514;2023-10-19T06:10:17;95326.91;;;9.72;83.07
10992;BME280;5549;47.028;15.514;2023-10-19T06:12:48;95326.50;;;10.19;84.47
10992;BME280;5549;47.028;15.514;2023-10-19T06:15:20;95324.63;;;10.63;84.19
10992;BME280;5549;47.028;15.514;2023-10-19T06:17:48;95322.25;;;11.02;81.81
10992;BME280;5549;47.028;15.514;2023-10-19T06:20:16;95327.03;;;11.39;79.15
10992;BME280;5549;47.028;15.514;2023-10-19T06:22:58;95315.53;;;11.81;77.13
10992;BME280;5549;47.028;15.514;2023-10-19T06:25:33;95309.41;;;12.21;74.22
10992;BME280;5549;47.028;15.514;2023-10-19T06:28:05;95313.22;;;12.58;73.00
10992;BME280;5549;47.028;15.514;2023-10-19T06:30:34;95306.53;;;12.78;70.98
10992;BME280;5549;47.028;15.514;2023-10-19T06:33:04;95306.50;;;13.09;68.21
10992;BME280;5549;47.028;15.514;2023-10-19T06:35:34;95301.66;;;13.43;67.61
10992;BME280;5549;47.028;15.514;2023-10-19T06:38:04;95287.44;;;13.67;66.45
10992;BME280;5549;47.028;15.514;2023-10-19T06:40:35;95287.16;;;14.00;65.57
10992;BME280;5549;47.028;15.514;2023-10-19T06:43:03;95288.53;;;14.25;63.59
10992;BME280;5549;47.028;15.514;2023-10-19T06:45:33;95296.56;;;14.47;63.03
10992;BME280;5549;47.028;15.514;2023-10-19T06:48:04;95292.09;;;14.62;60.83
10992;BME280;5549;47.028;15.514;2023-10-19T06:50:35;95297.53;;;14.75;59.58
10992;BME280;5549;47.028;15.514;2023-10-19T06:53:04;95285.72;;;14.92;59.11
10992;BME280;5549;47.028;15.514;2023-10-19T06:55:32;95282.53;;;15.18;58.44
10992;BME280;5549;47.028;15.514;2023-10-19T06:58:02;95290.03;;;15.36;58.26
10992;BME280;5549;47.028;15.514;2023-10-19T07:00:30;95275.41;;;15.40;55.87
10992;BME280;5549;47.028;15.514;2023-10-19T07:02:59;95288.03;;;15.59;57.07
10992;BME280;5549;47.028;15.514;2023-10-19T07:05:30;95276.19;;;15.77;57.08
10992;BME280;5549;47.028;15.514;2023-10-19T07:08:00;95283.91;;;15.99;56.96
10992;BME280;5549;47.028;15.514;2023-10-19T07:10:30;95280.97;;;16.22;56.35
10992;BME280;5549;47.028;15.514;2023-10-19T07:12:58;95271.31;;;16.43;54.60
10992;BME280;5549;47.028;15.514;2023-10-19T07:15:26;95276.66;;;16.56;55.34
10992;BME280;5549;47.028;15.514;2023-10-19T07:17:56;95278.31;;;16.57;53.45
10992;BME280;5549;47.028;15.514;2023-10-19T07:20:25;95288.22;;;16.76;54.18
10992;BME280;5549;47.028;15.514;2023-10-19T07:23:02;95280.94;;;16.98;54.22
10992;BME280;5549;47.028;15.514;2023-10-19T07:25:37;95283.84;;;17.23;53.92
10992;BME280;5549;47.028;15.514;2023-10-19T07:28:12;95296.94;;;17.31;53.38
10992;BME280;5549;47.028;15.514;2023-10-19T07:30:40;95287.09;;;17.12;52.27
10992;BME280;5549;47.028;15.514;2023-10-19T07:33:08;95287.50;;;17.15;52.85
10992;BME280;5549;47.028;15.514;2023-10-19T07:35:38;95274.84;;;17.11;52.05
10992;BME280;5549;47.028;15.514;2023-10-19T07:38:11;95288.88;;;16.91;51.04
10992;BME280;5549;47.028;15.514;2023-10-19T07:40:43;95269.44;;;16.71;51.78
10992;BME280;5549;47.028;15.514;2023-10-19T07:43:10;95266.47;;;16.53;52.15
10992;BME280;5549;47.028;15.514;2023-10-19T07:45:38;95262.44;;;16.63;52.02
10992;BME280;5549;47.028;15.514;2023-10-19T07:48:08;95273.00;;;16.57;52.39
10992;BME280;5549;47.028;15.514;2023-10-19T07:50:38;95274.66;;;16.58;51.99
10992;BME280;5549;47.028;15.514;2023-10-19T07:53:06;95274.75;;;16.36;52.70
10992;BME280;5549;47.028;15.514;2023-10-19T07:55:35;95275.69;;;16.22;54.12
10992;BME280;5549;47.028;15.514;2023-10-19T07:58:08;95282.75;;;16.50;54.40
10992;BME280;5549;47.028;15.514;2023-10-19T08:00:39;95272.38;;;16.55;52.83
10992;BME280;5549;47.028;15.514;2023-10-19T08:03:08;95273.13;;;16.42;54.61
10992;BME280;5549;47.028;15.514;2023-10-19T08:05:39;95275.44;;;16.52;54.69
10992;BME280;5549;47.028;15.514;2023-10-19T08:08:06;95279.16;;;16.64;54.58
10992;BME280;5549;47.028;15.514;2023-10-19T08:10:37;95261.66;;;16.70;53.55
10992;BME280;5549;47.028;15.514;2023-10-19T08:13:05;95268.88;;;16.48;54.82
10992;BME280;5549;47.028;15.514;2023-10-19T08:15:34;95259.63;;;16.72;55.33
10992;BME280;5549;47.028;15.514;2023-10-19T08:18:03;95251.78;;;16.98;54.72
10992;BME280;5549;47.028;15.514;2023-10-19T08:20:34;95244.66;;;17.18;53.54
10992;BME280;5549;47.028;15.514;2023-10-19T08:23:05;95255.34;;;17.38;55.07
10992;BME280;5549;47.028;15.514;2023-10-19T08:25:36;95242.28;;;17.37;54.55
10992;BME280;5549;47.028;15.514;2023-10-19T08:28:04;95242.69;;;17.47;54.43
10992;BME280;5549;47.028;15.514;2023-10-19T08:30:34;95235.75;;;17.52;54.14
10992;BME280;5549;47.028;15.514;2023-10-19T08:33:04;95232.88;;;17.60;54.02
10992;BME280;5549;47.028;15.514;2023-10-19T08:35:35;95237.19;;;17.68;53.27
10992;BME280;5549;47.028;15.514;2023-10-19T08:38:03;95237.19;;;17.88;53.59
10992;BME280;5549;47.028;15.514;2023-10-19T08:40:39;95239.00;;;18.01;54.29
10992;BME280;5549;47.028;15.514;2023-10-19T08:43:09;95242.84;;;18.18;53.95
10992;BME280;5549;47.028;15.514;2023-10-19T08:45:42;95231.59;;;18.22;53.52
10992;BME280;5549;47.028;15.514;2023-10-19T08:48:09;95225.44;;;18.28;53.93
10992;BME280;5549;47.028;15.514;2023-10-19T08:50:39;95233.19;;;18.43;53.52
10992;BME280;5549;47.028;15.514;2023-10-19T08:53:08;95248.47;;;18.54;53.13
10992;BME280;5549;47.028;15.514;2023-10-19T08:55:38;95239.31;;;18.44;51.94
10992;BME280;5549;47.028;15.514;2023-10-19T08:58:08;95248.66;;;18.66;51.63
10992;BME280;5549;47.028;15.514;2023-10-19T09:00:48;95244.97;;;18.60;51.68
10992;BME280;5549;47.028;15.514;2023-10-19T09:03:20;95251.13;;;18.54;51.48
10992;BME280;5549;47.028;15.514;2023-10-19T09:05:48;95247.88;;;18.46;52.56
10992;BME280;5549;47.028;15.514;2023-10-19T09:08:17;95244.63;;;18.44;53.25
10992;BME280;5549;47.028;15.514;2023-10-19T09:10:48;95250.34;;;18.41;52.63
10992;BME280;5549;47.028;15.514;2023-10-19T09:13:20;95249.94;;;18.44;53.17
10992;BME280;5549;47.028;15.514;2023-10-19T09:15:52;95238.75;;;18.28;53.56
10992;BME280;5549;47.028;15.514;2023-10-19T09:18:25;95241.44;;;18.09;53.36
10992;BME280;5549;47.028;15.514;2023-10-19T09:20:56;95244.09;;;18.15;54.16
10992;BME280;5549;47.028;15.514;2023-10-19T09:23:31;95243.03;;;18.23;54.27
10992;BME280;5549;47.028;15.514;2023-10-19T09:26:00;95240.53;;;18.48;54.54
10992;BME280;5549;47.028;15.514;2023-10-19T09:28:29;95241.91;;;18.57;54.60
10992;BME280;5549;47.028;15.514;2023-10-19T09:31:03;95228.09;;;18.86;53.86
10992;BME280;5549;47.028;15.514;2023-10-19T09:33:33;95228.63;;;19.02;54.07
10992;BME280;5549;47.028;15.514;2023-10-19T09:36:04;95219.19;;;19.06;53.00
10992;BME280;5549;47.028;15.514;2023-10-19T09:38:45;95227.00;;;18.63;52.96
10992;BME280;5549;47.028;15.514;2023-10-19T09:41:17;95228.09;;;18.86;54.23
10992;BME280;5549;47.028;15.514;2023-10-19T09:43:46;95231.41;;;18.82;53.71
10992;BME280;5549;47.028;15.514;2023-10-19T09:46:25;95222.66;;;19.13;54.87
10992;BME280;5549;47.028;15.514;2023-10-19T09:48:56;95204.94;;;19.32;55.33
10992;BME280;5549;47.028;15.514;2023-10-19T09:51:24;95204.91;;;19.63;54.44
10992;BME280;5549;47.028;15.514;2023-10-19T09:54:00;95204.47;;;19.66;53.62
10992;BME280;5549;47.028;15.514;2023-10-19T09:56:33;95209.91;;;19.78;52.38
10992;BME280;5549;47.028;15.514;2023-10-19T09:59:06;95202.84;;;20.27;53.63
10992;BME280;5549;47.028;15.514;2023-10-19T10:02:07;95215.75;;;20.66;53.79
10992;BME280;5549;47.028;15.514;2023-10-19T10:04:37;95203.91;;;20.80;51.72
10992;BME280;5549;47.028;15.514;2023-10-19T10:07:06;95197.34;;;20.76;50.21
10992;BME280;5549;47.028;15.514;2023-10-19T10:09:36;95190.47;;;20.69;50.34
10992;BME280;5549;47.028;15.514;2023-10-19T10:12:25;95193.50;;;20.72;51.63
10992;BME280;5549;47.028;15.514;2023-10-19T10:14:59;95187.72;;;20.94;51.64
10992;BME280;5549;47.028;15.514;2023-10-19T10:17:33;95170.47;;;21.08;52.76
10992;BME280;5549;47.028;15.514;2023-10-19T10:20:31;95166.84;;;21.32;51.60
10992;BME280;5549;47.028;15.514;2023-10-19T10:23:17;95167.44;;;21.34;50.82
10992;BME280;5549;47.028;15.514;2023-10-19T10:25:47;95172.78;;;21.34;50.46
10992;BME280;5549;47.028;15.514;2023-10-19T10:28:17;95170.94;;;21.47;50.69
10992;BME280;5549;47.028;15.514;2023-10-19T10:31:10;95164.66;;;21.53;50.95
10992;BME280;5549;47.028;15.514;2023-10-19T10:33:45;95161.28;;;21.45;51.22
10992;BME280;5549;47.028;15.514;2023-10-19T10:36:14;95162.91;;;21.47;50.63
10992;BME280;5549;47.028;15.514;2023-10-19T10:38:43;95151.66;;;21.44;52.14
10992;BME280;5549;47.028;15.514;2023-10-19T10:41:11;95155.25;;;21.38;51.22
10992;BME280;5549;47.028;15.514;2023-10-19T10:43:50;95155.75;;;21.17;51.47
10992;BME280;5549;47.028;15.514;2023-10-19T10:46:26;95150.28;;;21.12;51.70
10992;BME280;5549;47.028;15.514;2023-10-19T10:48:56;95147.81;;;20.99;52.09
10992;BME280;5549;47.028;15.514;2023-10-19T10:51:28;95134.00;;;21.02;52.24
10992;BME280;5549;47.028;15.514;2023-10-19T10:53:58;95137.59;;;20.96;52.78
10992;BME280;5549;47.028;15.514;2023-10-19T10:56:27;95137.59;;;20.96;53.48
10992;BME280;5549;47.028;15.514;2023-10-19T10:58:54;95129.91;;;20.88;54.10
10992;BME280;5549;47.028;15.514;2023-10-19T11:01:29;95131.44;;;20.65;55.25
10992;BME280;5549;47.028;15.514;2023-10-19T11:04:11;95126.38;;;20.75;54.64
10992;BME280;5549;47.028;15.514;2023-10-19T11:06:49;95131.69;;;20.75;54.98
10992;BME280;5549;47.028;15.514;2023-10-19T11:09:17;95130.75;;;20.40;54.71
10992;BME280;5549;47.028;15.514;2023-10-19T11:11:45;95134.59;;;20.44;55.40
10992;BME280;5549;47.028;15.514;2023-10-19T11:14:13;95118.22;;;20.40;55.16
10992;BME280;5549;47.028;15.514;2023-10-19T11:16:41;95116.28;;;20.47;55.32
10992;BME280;5549;47.028;15.514;2023-10-19T11:19:13;95106.22;;;20.49;55.87
10992;BME280;5549;47.028;15.514;2023-10-19T11:21:53;95106.53;;;20.41;56.43
10992;BME280;5549;47.028;15.514;2023-10-19T11:24:26;95106.56;;;20.53;56.51
10992;BME280;5549;47.028;15.514;2023-10-19T11:26:58;95093.50;;;20.63;56.80
10992;BME280;5549;47.028;15.514;2023-10-19T11:29:27;95090.97;;;20.68;57.10
10992;BME280;5549;47.028;15.514;2023-10-19T11:31:59;95070.28;;;20.34;57.97
10992;BME280;5549;47.028;15.514;2023-10-19T11:34:32;95082.75;;;20.22;58.16
10992;BME280;5549;47.028;15.514;2023-10-19T11:37:01;95083.59;;;20.52;58.05
10992;BME280;5549;47.028;15.514;2023-10-19T11:39:31;95081.97;;;20.51;57.50
10992;BME280;5549;47.028;15.514;2023-10-19T11:42:01;95084.38;;;20.71;57.62
10992;BME280;5549;47.028;15.514;2023-10-19T11:44:30;95075.84;;;20.80;57.68
10992;BME280;5549;47.028;15.514;2023-10-19T11:46:58;95057.75;;;20.94;56.74
10992;BME280;5549;47.028;15.514;2023-10-19T11:49:31;95054.75;;;20.61;57.93
10992;BME280;5549;47.028;15.514;2023-10-19T11:51:59;95061.47;;;20.81;56.97
10992;BME280;5549;47.028;15.514;2023-10-19T11:54:28;95061.16;;;20.71;57.88
10992;BME280;5549;47.028;15.514;2023-10-19T11:57:01;95068.13;;;20.72;58.48
10992;BME280;5549;47.028;15.514;2023-10-19T11:59:31;95057.00;;;20.75;58.24
10992;BME280;5549;47.028;15.514;2023-10-19T12:02:01;95050.63;;;20.76;58.45
10992;BME280;5549;47.028;15.514;2023-10-19T12:04:34;95055.97;;;20.76;57.10
10992;BME280;5549;47.028;15.514;2023-10-19T12:07:02;95054.09;;;20.77;57.77
10992;BME280;5549;47.028;15.514;2023-10-19T12:09:32;95056.81;;;20.89;57.24
10992;BME280;5549;47.028;15.514;2023-10-19T12:12:02;95058.56;;;20.53;58.08
10992;BME280;5549;47.028;15.514;2023-10-19T12:14:32;95054.50;;;20.80;57.78
10992;BME280;5549;47.028;15.514;2023-10-19T12:17:00;95045.97;;;20.72;57.87
10992;BME280;5549;47.028;15.514;2023-10-19T12:19:32;95035.88;;;20.62;58.05
10992;BME280;5549;47.028;15.514;2023-10-19T12:22:00;95024.91;;;20.82;58.24
10992;BME280;5549;47.028;15.514;2023-10-19T12:24:31;95032.16;;;20.63;57.79
10992;BME280;5549;47.028;15.514;2023-10-19T12:26:59;95031.28;;;20.81;57.38
10992;BME280;5549;47.028;15.514;2023-10-19T12:29:27;95017.69;;;20.71;57.97
10992;BME280;5549;47.028;15.514;2023-10-19T12:31:54;95012.81;;;20.79;57.97
10992;BME280;5549;47.028;15.514;2023-10-19T12:34:24;95010.22;;;20.61;58.07
10992;BME280;5549;47.028;15.514;2023-10-19T12:36:57;95003.28;;;20.60;58.23
10992;BME280;5549;47.028;15.514;2023-10-19T12:39:25;95008.41;;;20.73;58.40
10992;BME280;5549;47.028;15.514;2023-10-19T12:42:09;95005.84;;;20.78;59.26
10992;BME280;5549;47.028;15.514;2023-10-19T12:44:36;95013.91;;;20.90;59.34
10992;BME280;5549;47.028;15.514;2023-10-19T12:47:10;95008.91;;;20.94;59.08
10992;BME280;5549;47.028;15.514;2023-10-19T12:49:42;95004.84;;;20.91;59.06
10992;BME280;5549;47.028;15.514;2023-10-19T12:52:15;95005.28;;;20.76;59.21
10992;BME280;5549;47.028;15.514;2023-10-19T12:54:44;94997.47;;;20.63;58.94
10992;BME280;5549;47.028;15.514;2023-10-19T12:57:17;94992.41;;;20.73;58.87
10992;BME280;5549;47.028;15.514;2023-10-19T12:59:46;94993.78;;;20.76;58.77
10992;BME280;5549;47.028;15.514;2023-10-19T13:02:13;94992.16;;;20.75;58.73
10992;BME280;5549;47.028;15.514;2023-10-19T13:04:41;94995.41;;;20.77;59.19
10992;BME280;5549;47.028;15.514;2023-10-19T13:07:12;94992.84;;;20.70;59.72
10992;BME280;5549;47.028;15.514;2023-10-19T13:09:41;94978.94;;;20.68;59.52
10992;BME280;5549;47.028;15.514;2023-10-19T13:12:10;94984.16;;;20.75;59.64
10992;BME280;5549;47.028;15.514;2023-10-19T13:14:39;94984.50;;;20.78;59.72
10992;BME280;5549;47.028;15.514;2023-10-19T13:17:10;94983.38;;;20.86;60.32
10992;BME280;5549;47.028;15.514;2023-10-19T13:19:40;94976.31;;;20.92;60.06
10992;BME280;5549;47.028;15.514;2023-10-19T13:22:10;94981.19;;;20.95;60.00
10992;BME280;5549;47.028;15.514;2023-10-19T13:24:42;94982.22;;;20.94;60.77
10992;BME280;5549;47.028;15.514;2023-10-19T13:27:10;94987.69;;;20.99;60.74